createdAt,value
2019-01-25T00:03:18.904Z,2.45
2019-01-25T00:08:24.279Z,2.45
2019-01-25T00:13:29.619Z,2.48
2019-01-25T00:18:34.943Z,2.42
2019-01-25T00:23:40.270Z,2.37
2019-01-25T00:28:45.662Z,2.31
2019-01-25T00:33:51.025Z,2.25
2019-01-25T00:38:56.392Z,2.20
2019-01-25T00:44:01.731Z,2.23
2019-01-25T00:49:07.079Z,2.29
2019-01-25T00:54:12.398Z,2.29
2019-01-25T00:59:17.712Z,2.34
2019-01-25T01:04:23.080Z,2.44
2019-01-25T01:09:28.434Z,2.51
2019-01-25T01:14:33.819Z,2.56
2019-01-25T01:19:39.183Z,2.63
2019-01-25T01:24:44.569Z,2.64
2019-01-25T01:29:49.920Z,2.64
2019-01-25T01:34:55.345Z,2.65
2019-01-25T01:40:00.654Z,2.66
2019-01-25T01:45:06.343Z,2.69
2019-01-25T01:50:13.992Z,2.70
2019-01-25T01:55:19.321Z,2.73
2019-01-25T02:00:28.219Z,2.72
2019-01-25T02:05:33.575Z,2.74
2019-01-25T02:10:38.915Z,2.75
2019-01-25T02:15:44.242Z,2.75
2019-01-25T02:20:49.647Z,2.73
2019-01-25T02:25:55.504Z,2.69
2019-01-25T02:31:01.131Z,2.72
2019-01-25T02:36:06.736Z,2.75
2019-01-25T02:41:12.288Z,2.74
2019-01-25T02:46:17.822Z,2.73
2019-01-25T02:51:23.399Z,2.75
2019-01-25T02:56:28.934Z,2.78
2019-01-25T03:01:34.321Z,2.76
2019-01-25T03:06:39.733Z,2.77
2019-01-25T03:11:45.086Z,2.80
2019-01-25T03:16:50.393Z,2.83
2019-01-25T03:21:55.737Z,2.88
2019-01-25T03:27:01.061Z,2.88
2019-01-25T03:32:06.425Z,2.88
2019-01-25T03:37:11.755Z,2.83
2019-01-25T03:42:17.061Z,2.78
2019-01-25T03:47:22.374Z,2.78
2019-01-25T03:52:27.685Z,2.79
2019-01-25T03:57:33.048Z,2.81
2019-01-25T04:02:38.401Z,2.83
2019-01-25T04:07:43.753Z,2.88
2019-01-25T04:12:49.146Z,2.90
2019-01-25T04:17:54.562Z,2.90
2019-01-25T04:22:59.886Z,2.91
2019-01-25T04:28:05.270Z,2.91
2019-01-25T04:33:10.612Z,2.91
2019-01-25T04:38:15.941Z,2.92
2019-01-25T04:43:21.296Z,2.92
2019-01-25T04:48:26.709Z,2.95
2019-01-25T04:53:33.414Z,2.93
2019-01-25T04:58:38.743Z,2.89
2019-01-25T05:03:44.791Z,2.78
2019-01-25T05:08:50.135Z,2.75
2019-01-25T05:13:55.454Z,2.69
2019-01-25T05:19:00.751Z,2.72
2019-01-25T05:24:12.448Z,2.73
2019-01-25T05:29:19.429Z,2.70
2019-01-25T05:34:24.821Z,2.69
2019-01-25T05:39:30.120Z,2.71
2019-01-25T05:44:35.472Z,2.73
2019-01-25T05:49:40.797Z,2.78
2019-01-25T05:54:46.112Z,2.87
2019-01-25T05:59:51.483Z,2.96
2019-01-25T06:04:57.145Z,3.02
2019-01-25T06:10:02.540Z,3.05
2019-01-25T06:15:08.350Z,3.09
2019-01-25T06:20:13.809Z,3.10
2019-01-25T06:25:19.140Z,3.12
2019-01-25T06:30:24.467Z,3.10
2019-01-25T06:35:29.817Z,3.08
2019-01-25T06:40:35.293Z,3.07
2019-01-25T06:45:40.724Z,3.10
2019-01-25T06:50:46.030Z,3.09
2019-01-25T06:55:51.414Z,3.13
2019-01-25T07:01:13.316Z,3.18
2019-01-25T07:06:18.885Z,3.22
2019-01-25T07:11:24.265Z,3.24
2019-01-25T07:16:29.640Z,3.22
2019-01-25T07:21:34.984Z,3.27
2019-01-25T07:26:40.325Z,3.31
2019-01-25T07:31:46.393Z,3.35
2019-01-25T07:36:52.116Z,3.39
2019-01-25T07:41:59.613Z,3.45
2019-01-25T07:47:04.756Z,3.49
2019-01-25T07:52:10.165Z,3.53
2019-01-25T07:57:15.593Z,3.53
2019-01-25T08:02:20.946Z,3.54
2019-01-25T08:07:26.387Z,3.60
2019-01-25T08:12:31.982Z,3.67
2019-01-25T08:17:37.333Z,3.72
2019-01-25T08:22:42.911Z,3.79
2019-01-25T08:27:48.833Z,3.83
2019-01-25T08:32:54.342Z,3.93
2019-01-25T08:37:59.721Z,4.06
2019-01-25T08:43:05.089Z,4.18
2019-01-25T08:48:10.575Z,4.27
2019-01-25T08:53:15.962Z,4.36
2019-01-25T08:58:21.317Z,4.38
2019-01-25T09:03:26.663Z,4.44
2019-01-25T09:08:32.013Z,4.58
2019-01-25T09:13:37.424Z,4.69
2019-01-25T09:18:42.740Z,4.78
2019-01-25T09:23:48.080Z,4.84
2019-01-25T09:28:53.448Z,4.87
2019-01-25T09:33:58.798Z,4.89
2019-01-25T09:39:05.764Z,4.95
2019-01-25T09:44:11.140Z,5.12
2019-01-25T09:49:16.563Z,5.37
2019-01-25T09:54:21.875Z,5.50
2019-01-25T09:59:27.312Z,5.59
2019-01-25T10:04:32.778Z,5.65
2019-01-25T10:09:38.117Z,5.70
2019-01-25T10:14:43.465Z,5.86
2019-01-25T10:19:50.585Z,6.11
2019-01-25T10:24:55.891Z,6.34
2019-01-25T10:30:01.291Z,6.53
2019-01-25T10:35:08.451Z,6.81
2019-01-25T10:40:16.674Z,6.95
2019-01-25T10:45:34.195Z,7.02
2019-01-25T10:50:39.525Z,7.03
2019-01-25T10:55:44.942Z,6.98
2019-01-25T11:00:51.339Z,6.97
2019-01-25T11:05:56.867Z,6.95
2019-01-25T11:11:02.425Z,6.93
2019-01-25T11:16:11.972Z,6.90
2019-01-25T11:21:15.126Z,6.90
2019-01-25T11:26:20.424Z,6.92
2019-01-25T11:31:25.774Z,7.18
2019-01-25T11:36:31.115Z,7.49
2019-01-25T11:41:36.465Z,7.65
2019-01-25T11:46:41.802Z,7.78
2019-01-25T11:51:47.277Z,7.83
2019-01-25T11:56:52.676Z,7.85
2019-01-25T12:01:58.048Z,7.91
2019-01-25T12:07:03.435Z,7.99
2019-01-25T12:12:08.766Z,8.05
2019-01-25T12:17:14.162Z,8.08
2019-01-25T12:22:19.800Z,8.06
2019-01-25T12:27:25.227Z,8.16
2019-01-25T12:32:30.601Z,8.33
2019-01-25T12:37:35.889Z,8.54
2019-01-25T12:42:41.189Z,8.67
2019-01-25T12:47:46.521Z,8.83
2019-01-25T12:52:51.921Z,8.90
2019-01-25T12:57:57.241Z,8.96
2019-01-25T13:03:02.600Z,8.99
2019-01-25T13:08:07.968Z,9.02
2019-01-25T13:13:13.356Z,9.04
2019-01-25T13:18:18.756Z,9.10
2019-01-25T13:23:24.433Z,9.12
2019-01-25T13:28:29.841Z,9.15
2019-01-25T13:33:35.267Z,9.18
2019-01-25T13:38:41.106Z,9.14
2019-01-25T13:43:46.445Z,9.12
2019-01-25T13:48:51.767Z,9.19
2019-01-25T13:53:57.116Z,9.21
2019-01-25T13:59:02.718Z,9.21
2019-01-25T14:04:08.060Z,9.24
2019-01-25T14:09:13.391Z,9.18
2019-01-25T14:14:18.722Z,9.07
2019-01-25T14:19:24.198Z,8.96
2019-01-25T14:24:29.624Z,8.91
2019-01-25T14:29:35.016Z,8.86
2019-01-25T14:34:40.372Z,8.73
2019-01-25T14:39:45.809Z,8.61
2019-01-25T14:44:51.213Z,8.44
2019-01-25T14:49:56.592Z,8.29
2019-01-25T14:55:01.929Z,8.10
2019-01-25T15:00:07.896Z,7.94
2019-01-25T15:05:16.123Z,7.78
2019-01-25T15:10:23.968Z,7.70
2019-01-25T15:15:29.304Z,7.60
2019-01-25T15:20:34.609Z,7.53
2019-01-25T15:25:39.941Z,7.45
2019-01-25T15:30:45.395Z,7.39
2019-01-25T15:35:50.695Z,7.30
2019-01-25T15:40:55.990Z,7.26
2019-01-25T15:46:01.299Z,7.20
2019-01-25T15:51:06.717Z,7.13
2019-01-25T15:56:12.134Z,7.10
2019-01-25T16:01:17.737Z,7.10
2019-01-25T16:06:23.072Z,7.12
2019-01-25T16:11:29.135Z,7.10
2019-01-25T16:16:34.492Z,7.09
2019-01-25T16:21:39.801Z,7.07
2019-01-25T16:26:45.738Z,7.09
2019-01-25T16:31:51.180Z,7.02
2019-01-25T16:36:57.133Z,6.93
2019-01-25T16:42:02.662Z,6.85
2019-01-25T16:47:08.118Z,6.79
2019-01-25T16:52:14.024Z,6.70
2019-01-25T16:57:19.462Z,6.64
2019-01-25T17:02:25.063Z,6.57
2019-01-25T17:07:30.415Z,6.53
2019-01-25T17:12:35.723Z,6.50
2019-01-25T17:17:41.075Z,6.46
2019-01-25T17:22:46.384Z,6.40
2019-01-25T17:27:51.717Z,6.38
2019-01-25T17:32:58.976Z,6.35
2019-01-25T17:38:05.537Z,6.29
2019-01-25T17:43:10.875Z,6.25
2019-01-25T17:48:16.166Z,6.17
2019-01-25T17:53:21.571Z,6.10
2019-01-25T17:58:26.899Z,6.05
2019-01-25T18:03:33.110Z,6.05
2019-01-25T18:08:38.608Z,6.02
2019-01-25T18:13:44.477Z,5.91
2019-01-25T18:18:49.966Z,5.82
2019-01-25T18:23:55.296Z,5.68
2019-01-25T18:29:12.298Z,5.61
2019-01-25T18:34:17.797Z,5.65
2019-01-25T18:39:23.431Z,5.70
2019-01-25T18:44:28.863Z,5.73
2019-01-25T18:49:34.221Z,5.77
2019-01-25T18:54:39.571Z,5.83
2019-01-25T18:59:44.940Z,5.73
2019-01-25T19:04:50.296Z,5.74
2019-01-25T19:09:55.611Z,5.75
2019-01-25T19:15:04.557Z,5.76
2019-01-25T19:20:10.951Z,5.82
2019-01-25T19:25:16.336Z,5.82
2019-01-25T19:30:34.553Z,5.77
2019-01-25T19:35:39.869Z,5.74
2019-01-25T19:40:45.264Z,5.75
2019-01-25T19:45:50.589Z,5.72
2019-01-25T19:50:55.947Z,5.71
2019-01-25T19:56:01.311Z,5.71
2019-01-25T20:01:06.773Z,5.72
2019-01-25T20:06:12.102Z,5.72
2019-01-25T20:11:17.454Z,5.72
2019-01-25T20:16:22.835Z,5.73
2019-01-25T20:21:28.159Z,5.73
2019-01-25T20:26:33.568Z,5.73
2019-01-25T20:31:38.870Z,5.71
2019-01-25T20:36:44.202Z,5.73
2019-01-25T20:41:49.596Z,5.75
2019-01-25T20:46:54.935Z,5.85
2019-01-25T20:52:00.453Z,5.90
2019-01-25T20:57:05.781Z,5.96
2019-01-25T21:02:11.128Z,5.96
2019-01-25T21:07:16.470Z,5.92
2019-01-25T21:12:21.913Z,5.89
2019-01-25T21:17:27.204Z,5.93
2019-01-25T21:22:32.591Z,6.02
2019-01-25T21:27:37.924Z,6.06
2019-01-25T21:32:43.222Z,6.06
2019-01-25T21:37:48.505Z,6.06
2019-01-25T21:42:53.849Z,6.04
2019-01-25T21:47:59.224Z,6.08
2019-01-25T21:53:04.564Z,6.12
2019-01-25T21:58:09.940Z,6.15
2019-01-25T22:03:15.269Z,6.24
2019-01-25T22:08:20.666Z,6.34
2019-01-25T22:13:26.104Z,6.40
2019-01-25T22:18:31.501Z,6.53
2019-01-25T22:23:36.850Z,6.63
2019-01-25T22:28:42.141Z,6.74
2019-01-25T22:33:47.495Z,6.80
2019-01-25T22:38:52.810Z,6.82
2019-01-25T22:43:58.186Z,6.85
2019-01-25T22:49:03.561Z,6.93
2019-01-25T22:54:08.901Z,7.00
2019-01-25T22:59:14.429Z,7.01
2019-01-25T23:05:07.675Z,7.10
2019-01-25T23:10:21.371Z,7.22
2019-01-25T23:15:26.775Z,7.28
2019-01-25T23:20:32.126Z,7.37
2019-01-25T23:25:37.504Z,7.48
2019-01-25T23:30:42.802Z,7.56
2019-01-25T23:35:48.140Z,7.64
2019-01-25T23:40:53.543Z,7.67
2019-01-25T23:45:58.829Z,7.73
2019-01-25T23:51:04.161Z,7.78
2019-01-25T23:56:09.468Z,7.82
